Northcote, Minnesota
Current Conditions -  °F | °C
As of 12:33 AM on Monday 24 Nov 2014 (Local Time) from KHCO Reporting Station
Light Snow Light Snow  
Wind Chill: -4°   Ceiling: 1700
Heat Index: 14°   Visibility: 10mi
Dew Point:   Wind: 21mph
Humidity: 79%   Direction: 340°NNW
Pressure: 29.6"   Gusts: 31mph
Location:  48.7954°N, 97.009°W
Report Text: KHCO 240633Z AUTO 34018G27KT 10SM -SN BKN017 BKN026 OVC031 M10/M13 A2960 RMK AO2
Loading
Personal Weather Stations






























Interactive Weather Map New forecast layout! Learn more

10-Day Weather Forecast

Advertisements
Track Severe Weather on mobile